sensor_id;sensor_type;location;lat;lon;timestamp;P1;durP1;ratioP1;P2;durP2;ratioP2
78489;SDS011;67776;52.012;4.736;2023-07-13T00:00:43;13.30;;;2.55;;
78489;SDS011;67776;52.012;4.736;2023-07-13T00:03:09;15.17;;;3.50;;
78489;SDS011;67776;52.012;4.736;2023-07-13T00:05:34;13.60;;;3.60;;
78489;SDS011;67776;52.012;4.736;2023-07-13T00:07:59;16.50;;;3.08;;
78489;SDS011;67776;52.012;4.736;2023-07-13T00:10:25;18.07;;;3.07;;
78489;SDS011;67776;52.012;4.736;2023-07-13T00:12:51;16.47;;;3.50;;
78489;SDS011;67776;52.012;4.736;2023-07-13T00:15:21;15.03;;;3.17;;
78489;SDS011;67776;52.012;4.736;2023-07-13T00:17:50;17.70;;;3.20;;
78489;SDS011;67776;52.012;4.736;2023-07-13T00:20:16;13.63;;;2.92;;
78489;SDS011;67776;52.012;4.736;2023-07-13T00:22:42;12.20;;;2.83;;
78489;SDS011;67776;52.012;4.736;2023-07-13T00:25:09;17.30;;;3.25;;
78489;SDS011;67776;52.012;4.736;2023-07-13T00:27:36;13.48;;;2.97;;
78489;SDS011;67776;52.012;4.736;2023-07-13T00:30:01;16.37;;;3.10;;
78489;SDS011;67776;52.012;4.736;2023-07-13T00:32:27;14.00;;;3.00;;
78489;SDS011;67776;52.012;4.736;2023-07-13T00:34:54;18.73;;;3.20;;
78489;SDS011;67776;52.012;4.736;2023-07-13T00:37:19;12.33;;;3.00;;
78489;SDS011;67776;52.012;4.736;2023-07-13T00:39:44;20.40;;;3.17;;
78489;SDS011;67776;52.012;4.736;2023-07-13T00:42:10;13.73;;;3.13;;
78489;SDS011;67776;52.012;4.736;2023-07-13T00:44:36;18.73;;;2.97;;
78489;SDS011;67776;52.012;4.736;2023-07-13T00:47:02;15.90;;;2.60;;
78489;SDS011;67776;52.012;4.736;2023-07-13T00:49:28;14.68;;;3.13;;
78489;SDS011;67776;52.012;4.736;2023-07-13T00:51:56;13.75;;;2.50;;
78489;SDS011;67776;52.012;4.736;2023-07-13T00:54:26;14.90;;;2.80;;
78489;SDS011;67776;52.012;4.736;2023-07-13T00:56:56;12.05;;;2.83;;
78489;SDS011;67776;52.012;4.736;2023-07-13T00:59:25;15.23;;;2.70;;
78489;SDS011;67776;52.012;4.736;2023-07-13T01:01:51;15.05;;;3.08;;
78489;SDS011;67776;52.012;4.736;2023-07-13T01:04:17;13.00;;;2.63;;
78489;SDS011;67776;52.012;4.736;2023-07-13T01:06:43;12.02;;;2.70;;
78489;SDS011;67776;52.012;4.736;2023-07-13T01:09:09;12.90;;;2.78;;
78489;SDS011;67776;52.012;4.736;2023-07-13T01:11:36;13.67;;;2.80;;
78489;SDS011;67776;52.012;4.736;2023-07-13T01:14:02;13.48;;;2.88;;
78489;SDS011;67776;52.012;4.736;2023-07-13T01:16:29;13.38;;;3.28;;
78489;SDS011;67776;52.012;4.736;2023-07-13T01:18:59;15.67;;;2.83;;
78489;SDS011;67776;52.012;4.736;2023-07-13T01:21:26;12.50;;;2.65;;
78489;SDS011;67776;52.012;4.736;2023-07-13T01:23:52;17.60;;;3.22;;
78489;SDS011;67776;52.012;4.736;2023-07-13T01:26:18;16.33;;;3.00;;
78489;SDS011;67776;52.012;4.736;2023-07-13T01:28:43;19.20;;;3.40;;
78489;SDS011;67776;52.012;4.736;2023-07-13T01:31:10;14.30;;;3.10;;
78489;SDS011;67776;52.012;4.736;2023-07-13T01:33:39;13.25;;;3.00;;
78489;SDS011;67776;52.012;4.736;2023-07-13T01:36:06;16.73;;;3.45;;
78489;SDS011;67776;52.012;4.736;2023-07-13T01:38:32;16.52;;;3.17;;
78489;SDS011;67776;52.012;4.736;2023-07-13T01:40:58;18.90;;;3.67;;
78489;SDS011;67776;52.012;4.736;2023-07-13T01:43:24;15.27;;;3.67;;
78489;SDS011;67776;52.012;4.736;2023-07-13T01:45:49;15.00;;;3.20;;
78489;SDS011;67776;52.012;4.736;2023-07-13T01:48:15;11.10;;;2.77;;
78489;SDS011;67776;52.012;4.736;2023-07-13T01:50:40;10.53;;;2.80;;
78489;SDS011;67776;52.012;4.736;2023-07-13T01:53:05;11.68;;;2.88;;
78489;SDS011;67776;52.012;4.736;2023-07-13T01:55:31;12.97;;;2.80;;
78489;SDS011;67776;52.012;4.736;2023-07-13T01:57:57;11.48;;;2.75;;
78489;SDS011;67776;52.012;4.736;2023-07-13T02:00:22;14.17;;;2.90;;
78489;SDS011;67776;52.012;4.736;2023-07-13T02:02:49;11.95;;;2.58;;
78489;SDS011;67776;52.012;4.736;2023-07-13T02:05:15;11.33;;;2.80;;
78489;SDS011;67776;52.012;4.736;2023-07-13T02:07:40;12.27;;;2.95;;
78489;SDS011;67776;52.012;4.736;2023-07-13T02:10:07;9.13;;;2.80;;
78489;SDS011;67776;52.012;4.736;2023-07-13T02:12:33;13.77;;;2.63;;
78489;SDS011;67776;52.012;4.736;2023-07-13T02:14:59;17.27;;;2.90;;
78489;SDS011;67776;52.012;4.736;2023-07-13T02:17:25;11.55;;;3.17;;
78489;SDS011;67776;52.012;4.736;2023-07-13T02:19:51;13.93;;;3.03;;
78489;SDS011;67776;52.012;4.736;2023-07-13T02:22:17;9.87;;;2.60;;
78489;SDS011;67776;52.012;4.736;2023-07-13T02:24:46;16.63;;;3.23;;
78489;SDS011;67776;52.012;4.736;2023-07-13T02:27:11;14.93;;;3.20;;
78489;SDS011;67776;52.012;4.736;2023-07-13T02:29:37;13.20;;;2.88;;
78489;SDS011;67776;52.012;4.736;2023-07-13T02:32:02;12.73;;;2.73;;
78489;SDS011;67776;52.012;4.736;2023-07-13T02:34:28;13.87;;;3.13;;
78489;SDS011;67776;52.012;4.736;2023-07-13T02:36:53;14.98;;;2.97;;
78489;SDS011;67776;52.012;4.736;2023-07-13T02:39:19;13.90;;;2.73;;
78489;SDS011;67776;52.012;4.736;2023-07-13T02:41:44;10.80;;;2.43;;
78489;SDS011;67776;52.012;4.736;2023-07-13T02:44:12;9.77;;;2.50;;
78489;SDS011;67776;52.012;4.736;2023-07-13T02:46:38;11.88;;;2.65;;
78489;SDS011;67776;52.012;4.736;2023-07-13T02:49:04;14.18;;;2.70;;
78489;SDS011;67776;52.012;4.736;2023-07-13T02:51:30;10.40;;;2.23;;
78489;SDS011;67776;52.012;4.736;2023-07-13T02:53:56;8.00;;;2.38;;
78489;SDS011;67776;52.012;4.736;2023-07-13T02:56:25;10.40;;;2.30;;
78489;SDS011;67776;52.012;4.736;2023-07-13T02:58:52;11.90;;;2.08;;
78489;SDS011;67776;52.012;4.736;2023-07-13T03:01:19;11.52;;;2.22;;
78489;SDS011;67776;52.012;4.736;2023-07-13T03:03:47;10.88;;;2.45;;
78489;SDS011;67776;52.012;4.736;2023-07-13T03:06:13;10.57;;;2.50;;
78489;SDS011;67776;52.012;4.736;2023-07-13T03:08:40;14.52;;;2.53;;
78489;SDS011;67776;52.012;4.736;2023-07-13T03:11:07;11.30;;;2.75;;
78489;SDS011;67776;52.012;4.736;2023-07-13T03:13:36;11.57;;;2.63;;
78489;SDS011;67776;52.012;4.736;2023-07-13T03:16:02;7.75;;;2.30;;
78489;SDS011;67776;52.012;4.736;2023-07-13T03:18:28;13.03;;;2.47;;
78489;SDS011;67776;52.012;4.736;2023-07-13T03:20:54;12.18;;;2.58;;
78489;SDS011;67776;52.012;4.736;2023-07-13T03:23:20;14.40;;;2.80;;
78489;SDS011;67776;52.012;4.736;2023-07-13T03:25:46;11.77;;;2.50;;
78489;SDS011;67776;52.012;4.736;2023-07-13T03:28:13;15.60;;;2.80;;
78489;SDS011;67776;52.012;4.736;2023-07-13T03:30:38;16.20;;;3.10;;
78489;SDS011;67776;52.012;4.736;2023-07-13T03:33:04;16.40;;;3.28;;
78489;SDS011;67776;52.012;4.736;2023-07-13T03:35:29;13.53;;;3.00;;
78489;SDS011;67776;52.012;4.736;2023-07-13T03:37:58;10.67;;;3.13;;
78489;SDS011;67776;52.012;4.736;2023-07-13T03:40:25;12.38;;;3.42;;
78489;SDS011;67776;52.012;4.736;2023-07-13T03:42:51;14.57;;;3.78;;
78489;SDS011;67776;52.012;4.736;2023-07-13T03:45:17;13.32;;;3.20;;
78489;SDS011;67776;52.012;4.736;2023-07-13T03:47:43;12.40;;;3.40;;
78489;SDS011;67776;52.012;4.736;2023-07-13T03:50:08;13.80;;;3.47;;
78489;SDS011;67776;52.012;4.736;2023-07-13T03:52:34;15.40;;;3.93;;
78489;SDS011;67776;52.012;4.736;2023-07-13T03:54:59;18.37;;;4.00;;
78489;SDS011;67776;52.012;4.736;2023-07-13T03:57:25;17.33;;;4.43;;
78489;SDS011;67776;52.012;4.736;2023-07-13T03:59:50;14.45;;;4.72;;
78489;SDS011;67776;52.012;4.736;2023-07-13T04:02:16;19.80;;;3.80;;
78489;SDS011;67776;52.012;4.736;2023-07-13T04:04:42;20.23;;;3.88;;
78489;SDS011;67776;52.012;4.736;2023-07-13T04:07:08;15.95;;;4.50;;
78489;SDS011;67776;52.012;4.736;2023-07-13T04:09:34;14.00;;;3.77;;
78489;SDS011;67776;52.012;4.736;2023-07-13T04:11:59;18.65;;;4.97;;
78489;SDS011;67776;52.012;4.736;2023-07-13T04:14:25;17.30;;;3.80;;
78489;SDS011;67776;52.012;4.736;2023-07-13T04:16:50;17.00;;;4.00;;
78489;SDS011;67776;52.012;4.736;2023-07-13T04:19:16;17.08;;;4.70;;
78489;SDS011;67776;52.012;4.736;2023-07-13T04:21:41;19.43;;;4.83;;
78489;SDS011;67776;52.012;4.736;2023-07-13T04:24:07;14.87;;;4.30;;
78489;SDS011;67776;52.012;4.736;2023-07-13T04:26:32;16.37;;;4.43;;
78489;SDS011;67776;52.012;4.736;2023-07-13T04:29:00;17.60;;;4.05;;
78489;SDS011;67776;52.012;4.736;2023-07-13T04:31:28;21.08;;;4.78;;
78489;SDS011;67776;52.012;4.736;2023-07-13T04:33:54;16.52;;;4.50;;
78489;SDS011;67776;52.012;4.736;2023-07-13T04:36:20;15.60;;;4.80;;
78489;SDS011;67776;52.012;4.736;2023-07-13T04:38:45;13.20;;;4.43;;
78489;SDS011;67776;52.012;4.736;2023-07-13T04:41:10;16.77;;;4.60;;
78489;SDS011;67776;52.012;4.736;2023-07-13T04:43:37;20.10;;;4.63;;
78489;SDS011;67776;52.012;4.736;2023-07-13T04:46:03;30.57;;;5.87;;
78489;SDS011;67776;52.012;4.736;2023-07-13T04:48:31;21.75;;;5.07;;
78489;SDS011;67776;52.012;4.736;2023-07-13T04:50:57;18.67;;;4.80;;
78489;SDS011;67776;52.012;4.736;2023-07-13T04:53:23;18.35;;;5.07;;
78489;SDS011;67776;52.012;4.736;2023-07-13T04:55:49;16.52;;;4.93;;
78489;SDS011;67776;52.012;4.736;2023-07-13T04:58:14;12.77;;;4.90;;
78489;SDS011;67776;52.012;4.736;2023-07-13T05:00:40;17.10;;;4.83;;
78489;SDS011;67776;52.012;4.736;2023-07-13T05:03:05;19.80;;;5.47;;
78489;SDS011;67776;52.012;4.736;2023-07-13T05:05:31;18.73;;;4.53;;
78489;SDS011;67776;52.012;4.736;2023-07-13T05:07:56;18.67;;;4.50;;
78489;SDS011;67776;52.012;4.736;2023-07-13T05:10:22;18.88;;;4.55;;
78489;SDS011;67776;52.012;4.736;2023-07-13T05:12:48;18.83;;;4.60;;
78489;SDS011;67776;52.012;4.736;2023-07-13T05:15:14;17.33;;;4.32;;
78489;SDS011;67776;52.012;4.736;2023-07-13T05:17:39;16.33;;;4.83;;
78489;SDS011;67776;52.012;4.736;2023-07-13T05:20:06;16.00;;;5.22;;
78489;SDS011;67776;52.012;4.736;2023-07-13T05:22:32;16.88;;;4.80;;
78489;SDS011;67776;52.012;4.736;2023-07-13T05:25:00;16.80;;;5.50;;
78489;SDS011;67776;52.012;4.736;2023-07-13T05:27:26;25.33;;;6.28;;
78489;SDS011;67776;52.012;4.736;2023-07-13T05:29:51;17.87;;;5.70;;
78489;SDS011;67776;52.012;4.736;2023-07-13T05:32:17;18.67;;;5.55;;
78489;SDS011;67776;52.012;4.736;2023-07-13T05:34:43;20.13;;;5.17;;
78489;SDS011;67776;52.012;4.736;2023-07-13T05:37:08;22.15;;;5.32;;
78489;SDS011;67776;52.012;4.736;2023-07-13T05:39:34;23.53;;;5.00;;
78489;SDS011;67776;52.012;4.736;2023-07-13T05:42:00;18.38;;;5.00;;
78489;SDS011;67776;52.012;4.736;2023-07-13T05:44:27;20.23;;;5.20;;
78489;SDS011;67776;52.012;4.736;2023-07-13T05:46:52;19.02;;;4.57;;
78489;SDS011;67776;52.012;4.736;2023-07-13T05:49:18;20.87;;;5.53;;
78489;SDS011;67776;52.012;4.736;2023-07-13T05:51:44;19.33;;;4.70;;
78489;SDS011;67776;52.012;4.736;2023-07-13T05:54:10;20.80;;;4.90;;
78489;SDS011;67776;52.012;4.736;2023-07-13T05:56:35;17.07;;;4.47;;
78489;SDS011;67776;52.012;4.736;2023-07-13T05:59:01;17.47;;;4.77;;
78489;SDS011;67776;52.012;4.736;2023-07-13T06:01:26;17.13;;;4.63;;
78489;SDS011;67776;52.012;4.736;2023-07-13T06:03:51;18.67;;;4.47;;
78489;SDS011;67776;52.012;4.736;2023-07-13T06:06:19;16.53;;;4.30;;
78489;SDS011;67776;52.012;4.736;2023-07-13T06:08:45;18.55;;;4.53;;
78489;SDS011;67776;52.012;4.736;2023-07-13T06:11:15;14.67;;;4.40;;
78489;SDS011;67776;52.012;4.736;2023-07-13T06:13:43;12.45;;;4.40;;
78489;SDS011;67776;52.012;4.736;2023-07-13T06:16:08;18.38;;;5.25;;
78489;SDS011;67776;52.012;4.736;2023-07-13T06:18:34;22.43;;;5.37;;
78489;SDS011;67776;52.012;4.736;2023-07-13T06:21:11;40.10;;;6.57;;
78489;SDS011;67776;52.012;4.736;2023-07-13T06:23:38;14.02;;;3.35;;
78489;SDS011;67776;52.012;4.736;2023-07-13T06:26:04;10.32;;;2.58;;
78489;SDS011;67776;52.012;4.736;2023-07-13T06:28:31;8.47;;;2.30;;
78489;SDS011;67776;52.012;4.736;2023-07-13T06:30:57;9.82;;;2.70;;
78489;SDS011;67776;52.012;4.736;2023-07-13T06:33:23;8.02;;;2.75;;
78489;SDS011;67776;52.012;4.736;2023-07-13T06:35:49;11.63;;;3.60;;
78489;SDS011;67776;52.012;4.736;2023-07-13T06:38:15;10.30;;;3.50;;
78489;SDS011;67776;52.012;4.736;2023-07-13T06:40:40;8.57;;;3.30;;
78489;SDS011;67776;52.012;4.736;2023-07-13T06:43:06;11.05;;;3.70;;
78489;SDS011;67776;52.012;4.736;2023-07-13T06:45:32;10.70;;;4.00;;
78489;SDS011;67776;52.012;4.736;2023-07-13T06:48:05;9.07;;;3.60;;
78489;SDS011;67776;52.012;4.736;2023-07-13T06:50:31;10.87;;;3.07;;
78489;SDS011;67776;52.012;4.736;2023-07-13T06:52:56;10.27;;;2.80;;
78489;SDS011;67776;52.012;4.736;2023-07-13T06:55:21;15.33;;;3.70;;
78489;SDS011;67776;52.012;4.736;2023-07-13T06:57:47;24.67;;;3.30;;
78489;SDS011;67776;52.012;4.736;2023-07-13T07:00:12;10.40;;;2.73;;
78489;SDS011;67776;52.012;4.736;2023-07-13T07:02:38;16.05;;;3.42;;
78489;SDS011;67776;52.012;4.736;2023-07-13T07:05:04;11.30;;;3.37;;
78489;SDS011;67776;52.012;4.736;2023-07-13T07:07:29;22.88;;;4.85;;
78489;SDS011;67776;52.012;4.736;2023-07-13T07:09:55;21.60;;;4.90;;
78489;SDS011;67776;52.012;4.736;2023-07-13T07:12:20;22.37;;;5.50;;
78489;SDS011;67776;52.012;4.736;2023-07-13T07:14:46;17.23;;;5.43;;
78489;SDS011;67776;52.012;4.736;2023-07-13T07:17:11;15.87;;;5.43;;
78489;SDS011;67776;52.012;4.736;2023-07-13T07:19:37;14.20;;;5.47;;
78489;SDS011;67776;52.012;4.736;2023-07-13T07:22:03;11.70;;;5.47;;
78489;SDS011;67776;52.012;4.736;2023-07-13T07:24:29;11.77;;;5.13;;
78489;SDS011;67776;52.012;4.736;2023-07-13T07:26:54;14.63;;;5.20;;
78489;SDS011;67776;52.012;4.736;2023-07-13T07:29:19;10.83;;;4.50;;
78489;SDS011;67776;52.012;4.736;2023-07-13T07:31:45;14.80;;;5.50;;
78489;SDS011;67776;52.012;4.736;2023-07-13T07:34:11;16.00;;;5.57;;
78489;SDS011;67776;52.012;4.736;2023-07-13T07:36:36;16.40;;;5.83;;
78489;SDS011;67776;52.012;4.736;2023-07-13T07:39:01;11.90;;;4.53;;
78489;SDS011;67776;52.012;4.736;2023-07-13T07:41:27;10.05;;;3.70;;
78489;SDS011;67776;52.012;4.736;2023-07-13T07:43:52;23.67;;;5.90;;
78489;SDS011;67776;52.012;4.736;2023-07-13T07:46:18;11.30;;;4.40;;
78489;SDS011;67776;52.012;4.736;2023-07-13T07:48:43;13.10;;;4.40;;
78489;SDS011;67776;52.012;4.736;2023-07-13T07:51:09;11.17;;;4.30;;
78489;SDS011;67776;52.012;4.736;2023-07-13T07:53:34;13.13;;;3.97;;
78489;SDS011;67776;52.012;4.736;2023-07-13T07:55:59;10.77;;;3.27;;
78489;SDS011;67776;52.012;4.736;2023-07-13T07:58:25;9.27;;;2.77;;
78489;SDS011;67776;52.012;4.736;2023-07-13T08:00:50;14.05;;;3.35;;
78489;SDS011;67776;52.012;4.736;2023-07-13T08:03:16;9.27;;;3.43;;
78489;SDS011;67776;52.012;4.736;2023-07-13T08:05:41;7.50;;;3.00;;
78489;SDS011;67776;52.012;4.736;2023-07-13T08:08:07;9.23;;;2.70;;
78489;SDS011;67776;52.012;4.736;2023-07-13T08:10:34;8.10;;;2.92;;
78489;SDS011;67776;52.012;4.736;2023-07-13T08:13:01;10.87;;;3.17;;
78489;SDS011;67776;52.012;4.736;2023-07-13T08:15:27;9.40;;;3.47;;
78489;SDS011;67776;52.012;4.736;2023-07-13T08:17:53;9.00;;;4.32;;
78489;SDS011;67776;52.012;4.736;2023-07-13T08:20:18;13.70;;;4.73;;
78489;SDS011;67776;52.012;4.736;2023-07-13T08:22:44;11.50;;;4.97;;
78489;SDS011;67776;52.012;4.736;2023-07-13T08:25:09;8.90;;;4.17;;
78489;SDS011;67776;52.012;4.736;2023-07-13T08:27:34;12.95;;;4.88;;
78489;SDS011;67776;52.012;4.736;2023-07-13T08:30:00;12.23;;;3.83;;
78489;SDS011;67776;52.012;4.736;2023-07-13T08:32:28;9.63;;;4.27;;
78489;SDS011;67776;52.012;4.736;2023-07-13T08:34:54;10.07;;;3.65;;
78489;SDS011;67776;52.012;4.736;2023-07-13T08:37:19;11.27;;;3.90;;
78489;SDS011;67776;52.012;4.736;2023-07-13T08:39:44;15.57;;;3.70;;
78489;SDS011;67776;52.012;4.736;2023-07-13T08:47:45;8.17;;;2.80;;
78489;SDS011;67776;52.012;4.736;2023-07-13T08:50:19;8.43;;;3.35;;
78489;SDS011;67776;52.012;4.736;2023-07-13T08:52:49;10.35;;;3.70;;
78489;SDS011;67776;52.012;4.736;2023-07-13T08:55:16;6.80;;;2.70;;
78489;SDS011;67776;52.012;4.736;2023-07-13T08:57:48;8.67;;;2.93;;
78489;SDS011;67776;52.012;4.736;2023-07-13T09:00:19;8.68;;;3.03;;
78489;SDS011;67776;52.012;4.736;2023-07-13T09:13:48;12.00;;;4.88;;
78489;SDS011;67776;52.012;4.736;2023-07-13T09:16:25;13.30;;;5.20;;
78489;SDS011;67776;52.012;4.736;2023-07-13T09:18:51;13.80;;;5.10;;
78489;SDS011;67776;52.012;4.736;2023-07-13T09:21:25;10.13;;;4.32;;
78489;SDS011;67776;52.012;4.736;2023-07-13T09:23:58;14.20;;;5.60;;
78489;SDS011;67776;52.012;4.736;2023-07-13T09:26:26;12.45;;;4.40;;
78489;SDS011;67776;52.012;4.736;2023-07-13T09:28:59;12.95;;;3.80;;
78489;SDS011;67776;52.012;4.736;2023-07-13T09:31:39;9.60;;;3.65;;
78489;SDS011;67776;52.012;4.736;2023-07-13T09:34:10;7.65;;;2.65;;
78489;SDS011;67776;52.012;4.736;2023-07-13T09:36:36;7.40;;;2.73;;
78489;SDS011;67776;52.012;4.736;2023-07-13T09:39:04;6.43;;;2.58;;
78489;SDS011;67776;52.012;4.736;2023-07-13T09:44:30;7.47;;;3.20;;
78489;SDS011;67776;52.012;4.736;2023-07-13T09:46:58;7.03;;;3.08;;
78489;SDS011;67776;52.012;4.736;2023-07-13T09:49:25;7.95;;;2.58;;
78489;SDS011;67776;52.012;4.736;2023-07-13T09:52:04;8.77;;;2.80;;
78489;SDS011;67776;52.012;4.736;2023-07-13T09:54:35;6.32;;;2.25;;
78489;SDS011;67776;52.012;4.736;2023-07-13T09:57:02;7.10;;;2.53;;
78489;SDS011;67776;52.012;4.736;2023-07-13T09:59:31;6.32;;;2.50;;
78489;SDS011;67776;52.012;4.736;2023-07-13T10:01:59;5.88;;;2.50;;
78489;SDS011;67776;52.012;4.736;2023-07-13T10:04:31;7.73;;;2.77;;
78489;SDS011;67776;52.012;4.736;2023-07-13T10:07:05;9.13;;;2.92;;
78489;SDS011;67776;52.012;4.736;2023-07-13T10:09:32;8.25;;;3.00;;
78489;SDS011;67776;52.012;4.736;2023-07-13T10:11:57;8.73;;;3.57;;
78489;SDS011;67776;52.012;4.736;2023-07-13T10:14:23;7.13;;;2.90;;
78489;SDS011;67776;52.012;4.736;2023-07-13T10:16:51;7.30;;;3.13;;
78489;SDS011;67776;52.012;4.736;2023-07-13T10:19:26;8.68;;;3.13;;
78489;SDS011;67776;52.012;4.736;2023-07-13T10:24:52;8.35;;;3.00;;
78489;SDS011;67776;52.012;4.736;2023-07-13T10:27:23;8.93;;;3.15;;
78489;SDS011;67776;52.012;4.736;2023-07-13T10:29:59;8.10;;;2.90;;
78489;SDS011;67776;52.012;4.736;2023-07-13T10:32:34;7.90;;;3.22;;
78489;SDS011;67776;52.012;4.736;2023-07-13T10:35:00;7.30;;;3.28;;
78489;SDS011;67776;52.012;4.736;2023-07-13T10:37:29;10.38;;;3.50;;
78489;SDS011;67776;52.012;4.736;2023-07-13T10:40:04;7.30;;;3.10;;
78489;SDS011;67776;52.012;4.736;2023-07-13T10:42:33;7.30;;;2.80;;
78489;SDS011;67776;52.012;4.736;2023-07-13T10:45:11;13.73;;;3.80;;
78489;SDS011;67776;52.012;4.736;2023-07-13T10:47:41;8.40;;;3.58;;
78489;SDS011;67776;52.012;4.736;2023-07-13T10:50:09;10.32;;;3.30;;
78489;SDS011;67776;52.012;4.736;2023-07-13T10:52:53;10.15;;;3.28;;
78489;SDS011;67776;52.012;4.736;2023-07-13T10:57:59;11.80;;;3.60;;
78489;SDS011;67776;52.012;4.736;2023-07-13T11:00:25;8.40;;;3.20;;
78489;SDS011;67776;52.012;4.736;2023-07-13T11:03:00;7.20;;;2.60;;
78489;SDS011;67776;52.012;4.736;2023-07-13T11:05:32;12.18;;;3.60;;
78489;SDS011;67776;52.012;4.736;2023-07-13T11:08:33;8.88;;;2.80;;
78489;SDS011;67776;52.012;4.736;2023-07-13T11:10:56;8.52;;;2.78;;
78489;SDS011;67776;52.012;4.736;2023-07-13T11:16:11;10.95;;;3.05;;
78489;SDS011;67776;52.012;4.736;2023-07-13T11:21:30;9.75;;;3.40;;
78489;SDS011;67776;52.012;4.736;2023-07-13T11:26:42;7.27;;;2.90;;
78489;SDS011;67776;52.012;4.736;2023-07-13T11:31:43;7.43;;;2.80;;
78489;SDS011;67776;52.012;4.736;2023-07-13T11:34:16;7.60;;;2.80;;
78489;SDS011;67776;52.012;4.736;2023-07-13T11:36:46;12.90;;;3.00;;
78489;SDS011;67776;52.012;4.736;2023-07-13T11:42:03;7.13;;;2.60;;
78489;SDS011;67776;52.012;4.736;2023-07-13T11:44:32;6.35;;;2.78;;
78489;SDS011;67776;52.012;4.736;2023-07-13T11:46:59;9.15;;;2.67;;
78489;SDS011;67776;52.012;4.736;2023-07-13T11:49:36;7.68;;;2.50;;
78489;SDS011;67776;52.012;4.736;2023-07-13T11:52:11;8.00;;;2.60;;
78489;SDS011;67776;52.012;4.736;2023-07-13T11:54:48;6.82;;;2.80;;
78489;SDS011;67776;52.012;4.736;2023-07-13T11:57:29;6.72;;;2.78;;
78489;SDS011;67776;52.012;4.736;2023-07-13T12:00:00;6.68;;;2.90;;
78489;SDS011;67776;52.012;4.736;2023-07-13T12:02:33;7.10;;;3.03;;
78489;SDS011;67776;52.012;4.736;2023-07-13T12:05:02;7.40;;;2.43;;
78489;SDS011;67776;52.012;4.736;2023-07-13T12:07:30;6.97;;;2.70;;
78489;SDS011;67776;52.012;4.736;2023-07-13T12:10:01;6.03;;;2.55;;
78489;SDS011;67776;52.012;4.736;2023-07-13T12:12:29;7.07;;;2.70;;
78489;SDS011;67776;52.012;4.736;2023-07-13T12:14:55;5.70;;;2.60;;
78489;SDS011;67776;52.012;4.736;2023-07-13T12:17:24;6.20;;;2.70;;
78489;SDS011;67776;52.012;4.736;2023-07-13T12:19:51;7.00;;;2.83;;
78489;SDS011;67776;52.012;4.736;2023-07-13T12:22:18;6.40;;;2.70;;
78489;SDS011;67776;52.012;4.736;2023-07-13T12:24:45;5.95;;;2.47;;
78489;SDS011;67776;52.012;4.736;2023-07-13T12:27:19;7.07;;;2.53;;
78489;SDS011;67776;52.012;4.736;2023-07-13T12:29:49;7.40;;;2.42;;
78489;SDS011;67776;52.012;4.736;2023-07-13T12:32:23;8.07;;;2.60;;
78489;SDS011;67776;52.012;4.736;2023-07-13T12:34:54;7.47;;;2.50;;
78489;SDS011;67776;52.012;4.736;2023-07-13T12:37:22;7.47;;;2.60;;
78489;SDS011;67776;52.012;4.736;2023-07-13T12:39:48;5.85;;;2.38;;
78489;SDS011;67776;52.012;4.736;2023-07-13T12:42:22;8.25;;;2.55;;
78489;SDS011;67776;52.012;4.736;2023-07-13T12:44:53;7.05;;;2.65;;
78489;SDS011;67776;52.012;4.736;2023-07-13T12:47:22;6.20;;;2.60;;
78489;SDS011;67776;52.012;4.736;2023-07-13T12:49:49;5.53;;;2.60;;
78489;SDS011;67776;52.012;4.736;2023-07-13T12:52:31;5.65;;;2.70;;
78489;SDS011;67776;52.012;4.736;2023-07-13T12:55:09;6.43;;;2.60;;
78489;SDS011;67776;52.012;4.736;2023-07-13T12:57:41;6.82;;;2.80;;
78489;SDS011;67776;52.012;4.736;2023-07-13T13:00:24;6.45;;;2.58;;
78489;SDS011;67776;52.012;4.736;2023-07-13T13:02:54;5.88;;;2.60;;
78489;SDS011;67776;52.012;4.736;2023-07-13T13:05:21;6.80;;;2.60;;
78489;SDS011;67776;52.012;4.736;2023-07-13T13:07:48;7.43;;;2.70;;
78489;SDS011;67776;52.012;4.736;2023-07-13T13:10:14;8.15;;;2.22;;
78489;SDS011;67776;52.012;4.736;2023-07-13T13:12:40;9.07;;;2.60;;
78489;SDS011;67776;52.012;4.736;2023-07-13T13:15:09;8.35;;;2.65;;
78489;SDS011;67776;52.012;4.736;2023-07-13T13:17:36;5.68;;;2.50;;
78489;SDS011;67776;52.012;4.736;2023-07-13T13:20:11;5.70;;;2.30;;
78489;SDS011;67776;52.012;4.736;2023-07-13T13:22:42;8.88;;;2.33;;
78489;SDS011;67776;52.012;4.736;2023-07-13T13:25:11;7.67;;;2.50;;
78489;SDS011;67776;52.012;4.736;2023-07-13T13:27:37;5.38;;;2.58;;
78489;SDS011;67776;52.012;4.736;2023-07-13T13:30:10;6.90;;;2.50;;
78489;SDS011;67776;52.012;4.736;2023-07-13T13:32:45;6.53;;;2.55;;
78489;SDS011;67776;52.012;4.736;2023-07-13T13:35:21;7.72;;;2.70;;
78489;SDS011;67776;52.012;4.736;2023-07-13T13:37:47;6.45;;;2.13;;
78489;SDS011;67776;52.012;4.736;2023-07-13T13:40:20;6.40;;;2.30;;
78489;SDS011;67776;52.012;4.736;2023-07-13T13:42:48;8.30;;;2.40;;
78489;SDS011;67776;52.012;4.736;2023-07-13T13:45:14;8.75;;;2.20;;
78489;SDS011;67776;52.012;4.736;2023-07-13T13:47:43;7.20;;;2.72;;
78489;SDS011;67776;52.012;4.736;2023-07-13T13:50:13;5.43;;;2.00;;
78489;SDS011;67776;52.012;4.736;2023-07-13T13:52:41;5.85;;;2.00;;
78489;SDS011;67776;52.012;4.736;2023-07-13T13:55:20;22.30;;;2.97;;
78489;SDS011;67776;52.012;4.736;2023-07-13T13:57:48;5.97;;;1.90;;
78489;SDS011;67776;52.012;4.736;2023-07-13T14:00:14;5.45;;;1.83;;
78489;SDS011;67776;52.012;4.736;2023-07-13T14:02:42;4.40;;;2.15;;
78489;SDS011;67776;52.012;4.736;2023-07-13T14:05:17;5.32;;;2.05;;
78489;SDS011;67776;52.012;4.736;2023-07-13T14:07:47;7.07;;;2.20;;
78489;SDS011;67776;52.012;4.736;2023-07-13T14:10:13;9.27;;;2.30;;
78489;SDS011;67776;52.012;4.736;2023-07-13T14:12:40;6.13;;;2.00;;
78489;SDS011;67776;52.012;4.736;2023-07-13T14:15:21;7.13;;;1.85;;
78489;SDS011;67776;52.012;4.736;2023-07-13T14:17:55;6.25;;;2.05;;
78489;SDS011;67776;52.012;4.736;2023-07-13T14:20:23;5.15;;;2.10;;
78489;SDS011;67776;52.012;4.736;2023-07-13T14:22:50;4.43;;;1.90;;
78489;SDS011;67776;52.012;4.736;2023-07-13T14:25:17;5.93;;;2.10;;
78489;SDS011;67776;52.012;4.736;2023-07-13T14:27:44;4.68;;;1.90;;
78489;SDS011;67776;52.012;4.736;2023-07-13T14:30:17;5.53;;;2.00;;
78489;SDS011;67776;52.012;4.736;2023-07-13T14:32:44;5.20;;;2.08;;
78489;SDS011;67776;52.012;4.736;2023-07-13T14:35:13;5.47;;;2.03;;
78489;SDS011;67776;52.012;4.736;2023-07-13T14:37:40;7.10;;;2.30;;
78489;SDS011;67776;52.012;4.736;2023-07-13T14:40:21;5.28;;;2.00;;
78489;SDS011;67776;52.012;4.736;2023-07-13T14:42:53;5.75;;;1.98;;
78489;SDS011;67776;52.012;4.736;2023-07-13T14:45:19;6.20;;;2.30;;
78489;SDS011;67776;52.012;4.736;2023-07-13T14:47:45;6.22;;;2.22;;
78489;SDS011;67776;52.012;4.736;2023-07-13T14:50:24;5.35;;;2.08;;
78489;SDS011;67776;52.012;4.736;2023-07-13T14:52:57;4.90;;;2.10;;
78489;SDS011;67776;52.012;4.736;2023-07-13T14:55:22;4.83;;;2.10;;
78489;SDS011;67776;52.012;4.736;2023-07-13T14:57:51;6.30;;;2.10;;
78489;SDS011;67776;52.012;4.736;2023-07-13T15:00:18;3.73;;;1.50;;
78489;SDS011;67776;52.012;4.736;2023-07-13T15:02:52;5.78;;;1.85;;
78489;SDS011;67776;52.012;4.736;2023-07-13T15:05:22;4.30;;;1.73;;
78489;SDS011;67776;52.012;4.736;2023-07-13T15:07:49;6.47;;;2.08;;
78489;SDS011;67776;52.012;4.736;2023-07-13T15:10:17;5.07;;;1.88;;
78489;SDS011;67776;52.012;4.736;2023-07-13T15:12:43;4.77;;;1.80;;
78489;SDS011;67776;52.012;4.736;2023-07-13T15:15:09;5.45;;;1.95;;
78489;SDS011;67776;52.012;4.736;2023-07-13T15:17:36;4.93;;;1.80;;
78489;SDS011;67776;52.012;4.736;2023-07-13T15:20:06;4.85;;;2.10;;
78489;SDS011;67776;52.012;4.736;2023-07-13T15:22:49;4.53;;;1.83;;